Time;durP1;ratioP1;P1;durP2;ratioP2;P2;SDS_P1;SDS_P2;PMS_P1;PMS_P2;Temp;Humidity;BMP_temperature;BMP_pressure;BME280_temperature;BME280_humidity;BME280_pressure;Samples;Min_cycle;Max_cycle;Signal;HPM_P1;HPM_P2
2023/08/20 00:02:05;;;;;;;13.07;11.85;;;;;;;21.91;61.36;93123.03;5081762;28;20238;-74
2023/08/20 00:04:31;;;;;;;12.63;11.52;;;;;;;21.86;61.60;93107.31;5087718;28;20216;-73
2023/08/20 00:06:57;;;;;;;13.27;12.15;;;;;;;21.81;62.37;93115.50;5085404;28;20230;-77
2023/08/20 00:09:24;;;;;;;12.27;11.00;;;;;;;21.98;61.24;93110.72;5077546;28;20211;-76
2023/08/20 00:11:49;;;;;;;13.98;12.63;;;;;;;22.10;60.80;93123.22;5097124;28;20236;-73
2023/08/20 00:14:16;;;;;;;12.13;11.13;;;;;;;22.11;60.48;93108.78;5090163;28;20182;-76
2023/08/20 00:16:42;;;;;;;13.15;11.85;;;;;;;22.11;60.15;93101.59;5088877;28;20767;-77
2023/08/20 00:19:08;;;;;;;13.40;12.27;;;;;;;22.15;60.34;93115.75;5090181;28;20182;-77
2023/08/20 00:21:35;;;;;;;13.48;12.20;;;;;;;22.03;60.47;93107.03;5091740;28;20174;-76
2023/08/20 00:24:01;;;;;;;13.43;12.23;;;;;;;22.14;60.12;93116.88;5091435;28;20234;-77
2023/08/20 00:26:26;;;;;;;11.90;10.85;;;;;;;22.07;60.77;93124.66;5093448;28;20626;-76
2023/08/20 00:28:52;;;;;;;12.13;11.02;;;;;;;22.02;61.06;93122.22;5093776;28;20198;-75
2023/08/20 00:31:17;;;;;;;12.82;11.68;;;;;;;22.06;60.77;93117.00;5091244;28;20184;-76
2023/08/20 00:33:43;;;;;;;12.90;11.90;;;;;;;22.06;60.94;93127.66;5091520;28;20217;-76
2023/08/20 00:36:08;;;;;;;13.48;11.40;;;;;;;22.05;60.79;93124.19;5092045;28;20212;-77
2023/08/20 00:38:34;;;;;;;12.52;11.30;;;;;;;22.03;60.52;93123.78;5090945;28;20262;-77
2023/08/20 00:40:59;;;;;;;12.50;11.40;;;;;;;22.08;60.55;93123.56;5092229;28;20205;-76
2023/08/20 00:43:24;;;;;;;13.00;11.90;;;;;;;22.06;60.74;93125.78;5091545;28;20223;-73
2023/08/20 00:45:50;;;;;;;13.23;11.98;;;;;;;21.95;61.31;93126.56;5091208;28;20922;-74
2023/08/20 00:48:17;;;;;;;12.43;11.43;;;;;;;21.83;61.92;93113.28;5091296;28;20826;-73
2023/08/20 00:50:42;;;;;;;11.98;10.82;;;;;;;21.87;61.75;93116.81;5092017;28;20201;-73
2023/08/20 00:53:11;;;;;;;12.98;11.93;;;;;;;21.78;62.09;93110.84;5091488;28;20245;-73
2023/08/20 00:55:37;;;;;;;12.77;11.68;;;;;;;21.99;61.96;93119.47;5090999;28;20193;-73
2023/08/20 00:58:03;;;;;;;12.93;11.82;;;;;;;21.89;62.00;93101.31;5091233;28;20231;-73
2023/08/20 01:00:28;;;;;;;13.02;11.80;;;;;;;21.84;62.21;93098.88;5092054;28;20192;-74
2023/08/20 01:02:54;;;;;;;12.30;11.20;;;;;;;21.92;61.61;93112.06;5091922;28;20226;-74
2023/08/20 01:05:19;;;;;;;12.23;11.23;;;;;;;21.91;62.21;93120.38;5091610;28;20207;-76
2023/08/20 01:08:01;;;;;;;12.32;11.23;;;;;;;21.75;63.07;93117.63;5090652;28;20272;-77
2023/08/20 01:10:45;;;;;;;12.25;10.40;;;;;;;22.04;61.53;93113.91;5091617;28;20229;-77
2023/08/20 01:13:11;;;;;;;11.98;10.98;;;;;;;21.87;62.46;93108.84;5099718;28;20226;-76
2023/08/20 01:15:36;;;;;;;13.27;12.18;;;;;;;21.88;62.83;93121.03;5091574;28;20209;-76
2023/08/20 01:18:02;;;;;;;11.98;11.07;;;;;;;21.75;63.55;93119.50;5090909;28;20226;-76
2023/08/20 01:20:32;;;;;;;11.95;10.95;;;;;;;21.69;63.44;93104.88;5091519;28;20250;-77
2023/08/20 01:22:58;;;;;;;11.55;10.65;;;;;;;21.78;63.42;93116.97;5084240;28;20229;-76
2023/08/20 01:25:42;;;;;;;12.25;11.27;;;;;;;21.75;63.34;93112.31;5090010;28;20198;-76
2023/08/20 01:28:28;;;;;;;12.73;11.73;;;;;;;21.77;63.33;93110.09;5090581;28;20229;-77
2023/08/20 01:30:56;;;;;;;12.60;11.50;;;;;;;21.84;63.27;93120.16;5091312;28;20188;-77
2023/08/20 01:33:22;;;;;;;12.75;11.70;;;;;;;21.77;63.53;93110.09;5090435;28;20211;-77
2023/08/20 01:35:47;;;;;;;12.07;11.07;;;;;;;21.81;63.43;93110.19;5091197;28;20226;-76
2023/08/20 01:38:13;;;;;;;11.50;10.52;;;;;;;21.61;63.84;93090.59;5090522;28;20234;-76
2023/08/20 01:40:38;;;;;;;11.68;10.77;;;;;;;21.71;64.32;93095.44;5091275;28;20181;-77
2023/08/20 01:43:03;;;;;;;11.98;11.13;;;;;;;21.76;64.21;93091.84;5089361;28;20238;-76
2023/08/20 01:45:29;;;;;;;13.02;12.00;;;;;;;21.76;64.12;93099.81;5123963;28;20205;-76
2023/08/20 01:47:54;;;;;;;12.60;11.68;;;;;;;21.64;65.09;93084.59;5089323;28;20221;-75
2023/08/20 01:50:19;;;;;;;12.18;11.38;;;;;;;21.74;64.96;93099.31;5090903;28;20163;-76
2023/08/20 01:52:45;;;;;;;13.52;12.38;;;;;;;21.76;65.57;93099.81;5090271;28;20222;-76
2023/08/20 01:55:11;;;;;;;12.90;11.90;;;;;;;21.67;66.45;93105.19;5090857;28;20971;-76
2023/08/20 01:57:37;;;;;;;16.98;12.27;;;;;;;21.63;66.47;93101.66;5090191;28;20239;-77
2023/08/20 02:00:07;;;;;;;12.38;11.13;;;;;;;21.53;67.71;93094.13;5090837;28;20207;-77
2023/08/20 02:02:32;;;;;;;12.32;11.05;;;;;;;21.69;66.45;93103.00;5090176;28;20238;-76
2023/08/20 02:04:58;;;;;;;13.02;11.43;;;;;;;21.44;67.43;93088.19;5100824;28;20222;-77
2023/08/20 02:07:23;;;;;;;11.77;10.68;;;;;;;21.30;68.84;93084.28;5093266;28;20217;-77
2023/08/20 02:09:49;;;;;;;12.02;11.07;;;;;;;21.09;69.89;93070.38;5089646;28;20187;-76
2023/08/20 02:12:14;;;;;;;11.93;10.90;;;;;;;21.21;69.56;93076.44;5086829;28;20235;-76
2023/08/20 02:14:40;;;;;;;12.25;11.13;;;;;;;21.13;70.23;93079.19;5080994;28;20222;-76
2023/08/20 02:17:06;;;;;;;12.18;11.13;;;;;;;21.02;71.28;93070.13;5088470;28;20221;-76
2023/08/20 02:19:32;;;;;;;12.23;11.10;;;;;;;21.06;71.61;93079.75;5090519;28;20194;-77
2023/08/20 02:21:57;;;;;;;12.57;11.43;;;;;;;21.01;72.00;93084.50;5089451;28;20232;-77
2023/08/20 02:24:23;;;;;;;12.00;11.20;;;;;;;20.81;72.39;93080.03;5090177;28;20189;-76
2023/08/20 02:26:48;;;;;;;12.70;11.80;;;;;;;20.90;72.83;93086.81;5092424;28;20227;-77
2023/08/20 02:29:14;;;;;;;12.98;12.02;;;;;;;20.79;73.27;93084.88;5090051;28;20184;-77
2023/08/20 02:31:39;;;;;;;13.07;12.07;;;;;;;20.77;73.14;93084.44;5089844;28;20336;-76
2023/08/20 02:34:04;;;;;;;12.95;11.68;;;;;;;20.70;73.89;93085.00;5080140;28;20919;-77
2023/08/20 02:36:30;;;;;;;12.90;11.93;;;;;;;20.73;71.30;93077.13;5085607;28;20197;-76
2023/08/20 02:38:55;;;;;;;11.98;10.88;;;;;;;20.71;74.29;93078.56;5123132;28;20222;-76
2023/08/20 02:41:21;;;;;;;11.52;10.75;;;;;;;20.67;74.19;93083.75;5089848;28;20184;-77
2023/08/20 02:43:46;;;;;;;12.52;11.38;;;;;;;20.64;74.12;93080.97;5097725;28;20233;-77
2023/08/20 02:46:12;;;;;;;12.55;11.65;;;;;;;20.52;74.93;93073.00;5095323;28;20213;-77
2023/08/20 02:48:37;;;;;;;13.10;12.07;;;;;;;20.44;75.83;93085.25;5088743;28;20672;-77
2023/08/20 02:51:03;;;;;;;13.93;12.38;;;;;;;20.44;76.20;93093.22;5089346;28;20412;-76
2023/08/20 02:53:28;;;;;;;12.88;11.88;;;;;;;20.40;75.93;93089.66;5089413;28;20214;-76
2023/08/20 02:55:54;;;;;;;12.57;11.57;;;;;;;20.19;76.62;93093.44;5089519;28;20192;-76
2023/08/20 02:58:19;;;;;;;12.40;11.60;;;;;;;20.25;76.49;93092.91;5088208;28;20311;-76
2023/08/20 03:00:45;;;;;;;13.48;12.25;;;;;;;20.24;77.21;93104.63;5088763;28;20178;-76
2023/08/20 03:03:11;;;;;;;14.05;12.70;;;;;;;20.21;77.25;93101.84;5087979;28;20222;-75
2023/08/20 03:05:36;;;;;;;13.40;12.15;;;;;;;20.15;77.71;93108.44;5089206;28;20211;-74
2023/08/20 03:08:03;;;;;;;12.65;11.65;;;;;;;20.20;77.66;93109.00;5089414;28;20250;-75
2023/08/20 03:10:31;;;;;;;16.83;13.13;;;;;;;20.08;78.00;93108.16;5089422;28;20204;-74
2023/08/20 03:12:56;;;;;;;12.75;11.80;;;;;;;20.02;78.83;93112.88;5077867;28;20241;-75
2023/08/20 03:15:22;;;;;;;12.88;11.88;;;;;;;20.06;78.56;93111.13;5089492;28;20186;-75
2023/08/20 03:17:47;;;;;;;14.35;12.93;;;;;;;20.03;78.29;93100.41;5088925;28;20291;-76
2023/08/20 03:20:12;;;;;;;13.23;12.13;;;;;;;19.89;78.91;93105.97;5089317;28;20819;-77
2023/08/20 03:22:38;;;;;;;12.07;11.10;;;;;;;19.89;79.32;93099.91;5088169;28;20226;-76
2023/08/20 03:25:04;;;;;;;13.13;12.13;;;;;;;19.89;79.45;93095.34;5089246;28;20302;-77
2023/08/20 03:27:30;;;;;;;12.60;11.50;;;;;;;19.82;79.58;93099.63;5087841;28;20221;-76
2023/08/20 03:29:56;;;;;;;12.60;11.50;;;;;;;19.83;80.31;93095.91;5081089;28;20189;-77
2023/08/20 03:32:22;;;;;;;12.73;11.63;;;;;;;19.82;80.35;93086.38;5088993;28;20220;-77
2023/08/20 03:34:47;;;;;;;12.88;11.85;;;;;;;19.80;80.84;93094.66;5088989;28;20286;-77
2023/08/20 03:37:12;;;;;;;14.05;12.50;;;;;;;19.63;81.78;93091.34;5088854;28;21148;-77
2023/08/20 03:39:38;;;;;;;13.27;12.18;;;;;;;19.70;81.01;93092.41;5089714;28;20206;-76
2023/08/20 03:42:04;;;;;;;15.60;11.82;;;;;;;19.76;80.94;93085.81;5088641;28;20239;-77
2023/08/20 03:44:30;;;;;;;26.25;13.57;;;;;;;19.65;82.00;93084.63;5089215;28;20207;-77
2023/08/20 03:46:56;;;;;;;13.88;12.48;;;;;;;19.84;82.16;93090.28;5091693;28;20225;-77
2023/08/20 03:49:22;;;;;;;13.65;12.13;;;;;;;19.76;82.32;93092.97;5091888;28;20180;-77
2023/08/20 03:51:47;;;;;;;13.50;12.30;;;;;;;19.80;82.57;93088.59;5092739;28;20230;-76
2023/08/20 03:54:13;;;;;;;13.57;12.13;;;;;;;19.87;80.82;93092.28;5092929;28;20181;-76
2023/08/20 03:56:38;;;;;;;13.27;11.85;;;;;;;19.79;80.33;93085.16;5092497;28;20196;-77
2023/08/20 03:59:03;;;;;;;13.80;12.60;;;;;;;19.98;80.61;93093.44;5108870;28;20220;-77
2023/08/20 04:01:29;;;;;;;13.65;12.48;;;;;;;20.02;79.76;93086.38;5092482;28;20201;-77
2023/08/20 04:03:54;;;;;;;14.07;12.77;;;;;;;19.99;79.46;93091.53;5093308;28;20250;-77
2023/08/20 04:06:19;;;;;;;12.77;11.77;;;;;;;20.04;79.17;93091.34;5092850;28;20215;-76
2023/08/20 04:08:45;;;;;;;13.18;11.80;;;;;;;20.21;78.31;93097.31;5091630;28;20219;-77
2023/08/20 04:11:10;;;;;;;13.90;12.65;;;;;;;20.10;79.73;93104.09;5097478;28;20820;-77
2023/08/20 04:13:35;;;;;;;12.38;11.48;;;;;;;20.07;79.77;93096.78;5097187;28;20474;-77
2023/08/20 04:16:01;;;;;;;12.98;11.88;;;;;;;20.07;81.00;93096.00;5092778;28;20184;-76
2023/08/20 04:18:26;;;;;;;13.55;12.50;;;;;;;20.25;78.88;93092.91;5091957;28;20224;-77
2023/08/20 04:20:52;;;;;;;13.13;12.13;;;;;;;20.20;79.12;93093.09;5092361;28;20176;-76
2023/08/20 04:23:18;;;;;;;12.20;11.15;;;;;;;20.27;79.11;93093.38;5091958;28;20226;-77
2023/08/20 04:25:44;;;;;;;12.93;11.63;;;;;;;20.37;78.80;93090.28;5091850;28;20889;-77
2023/08/20 04:28:10;;;;;;;12.57;11.75;;;;;;;20.33;78.98;93094.72;5091501;28;20283;-77
2023/08/20 04:30:36;;;;;;;11.70;10.82;;;;;;;20.48;77.73;93096.75;5089137;28;20216;-77
2023/08/20 04:33:02;;;;;;;14.20;12.75;;;;;;;20.51;75.50;93085.47;5091446;28;20224;-77
2023/08/20 04:35:27;;;;;;;13.30;12.20;;;;;;;20.96;73.57;93095.34;5092443;28;20189;-76
2023/08/20 04:37:53;;;;;;;13.13;11.93;;;;;;;20.95;74.78;93099.09;5091963;28;20451;-77
2023/08/20 04:40:18;;;;;;;13.30;12.00;;;;;;;21.02;73.15;93100.13;5092474;28;20192;-77
2023/08/20 04:42:44;;;;;;;13.15;11.95;;;;;;;21.10;72.07;93103.78;5091881;28;20260;-76
2023/08/20 04:45:10;;;;;;;13.15;12.05;;;;;;;21.28;71.12;93105.88;5092222;28;20212;-77
2023/08/20 04:47:36;;;;;;;12.98;12.02;;;;;;;21.40;69.91;93108.53;5091594;28;20224;-77
2023/08/20 04:50:02;;;;;;;14.23;13.05;;;;;;;21.61;69.87;93108.41;5091300;28;20248;-77
2023/08/20 04:52:27;;;;;;;12.98;11.80;;;;;;;21.82;69.59;93111.75;5091483;28;20258;-77
2023/08/20 04:54:52;;;;;;;12.60;11.70;;;;;;;21.66;69.01;93097.56;5092091;28;20208;-77
2023/08/20 04:57:18;;;;;;;13.32;12.18;;;;;;;21.89;67.57;93086.16;5078326;28;20260;-76
2023/08/20 04:59:45;;;;;;;12.93;11.73;;;;;;;22.20;67.77;93107.56;5088252;28;20196;-77
2023/08/20 05:02:12;;;;;;;13.43;11.95;;;;;;;22.33;66.33;93110.16;5082823;28;20223;-77
2023/08/20 05:04:37;;;;;;;12.13;11.15;;;;;;;22.57;65.97;93099.47;5115787;28;21131;-77
2023/08/20 05:07:03;;;;;;;12.50;11.40;;;;;;;22.70;65.19;93109.69;5079865;28;20443;-75
2023/08/20 05:09:29;;;;;;;12.23;11.27;;;;;;;22.94;63.11;93114.88;5086889;28;20183;-74
2023/08/20 05:11:54;;;;;;;12.65;11.48;;;;;;;23.15;62.56;93110.09;5086171;28;20233;-75
2023/08/20 05:14:19;;;;;;;12.60;11.52;;;;;;;23.39;62.00;93115.28;5089042;28;20185;-75
2023/08/20 05:16:45;;;;;;;11.48;10.57;;;;;;;23.68;61.18;93116.72;5090766;28;20223;-75
2023/08/20 05:19:10;;;;;;;12.82;11.82;;;;;;;23.84;59.92;93112.13;5087868;28;20226;-78
2023/08/20 05:21:35;;;;;;;12.20;11.30;;;;;;;24.08;59.44;93117.25;5079276;28;20195;-75
2023/08/20 05:24:01;;;;;;;11.77;10.88;;;;;;;24.27;57.87;93127.16;5085884;28;20190;-75
2023/08/20 05:26:26;;;;;;;12.30;11.25;;;;;;;24.44;57.95;93124.88;5087316;28;20233;-76
2023/08/20 05:28:51;;;;;;;12.38;11.48;;;;;;;24.55;56.63;93119.72;5086791;28;20230;-77
2023/08/20 05:31:17;;;;;;;11.57;10.48;;;;;;;24.42;56.51;93131.69;5083399;28;20206;-75
2023/08/20 05:33:42;;;;;;;12.57;11.45;;;;;;;24.67;58.43;93130.31;5078727;28;20240;-76
2023/08/20 05:36:07;;;;;;;12.43;11.52;;;;;;;24.26;61.78;93130.97;5082018;28;20186;-76
2023/08/20 05:38:33;;;;;;;12.10;11.18;;;;;;;24.55;61.37;93138.41;5088172;28;20261;-77
2023/08/20 05:40:58;;;;;;;15.00;13.38;;;;;;;24.15;63.30;93132.63;5082583;28;20255;-76
2023/08/20 05:43:23;;;;;;;15.73;14.07;;;;;;;23.75;64.31;93130.97;5082335;28;20226;-76
2023/08/20 05:45:49;;;;;;;15.02;13.23;;;;;;;24.19;62.32;93130.84;5086130;28;20288;-76
2023/08/20 05:48:14;;;;;;;14.45;12.55;;;;;;;24.31;62.04;93141.38;5086105;28;20903;-77
2023/08/20 05:50:39;;;;;;;13.88;12.75;;;;;;;24.19;63.93;93141.50;5089756;28;20203;-74
2023/08/20 05:53:05;;;;;;;13.90;12.65;;;;;;;24.42;62.82;93145.03;5089626;28;20226;-74
2023/08/20 05:55:30;;;;;;;14.35;13.10;;;;;;;24.91;61.80;93146.81;5085041;28;20192;-72
2023/08/20 05:57:55;;;;;;;13.02;11.93;;;;;;;24.95;60.41;93152.22;5080248;28;20255;-72
2023/08/20 06:00:21;;;;;;;14.48;13.05;;;;;;;24.97;59.98;93152.63;5077995;28;20189;-73
2023/08/20 06:02:46;;;;;;;13.95;12.65;;;;;;;25.27;57.09;93151.66;5078262;28;20220;-78
2023/08/20 06:05:12;;;;;;;11.68;10.65;;;;;;;26.10;53.57;93147.28;5077436;28;20207;-74
2023/08/20 06:07:38;;;;;;;11.93;10.90;;;;;;;28.33;46.11;93154.59;5084835;28;20227;-75
2023/08/20 06:10:05;;;;;;;12.27;10.93;;;;;;;31.69;39.57;93156.44;5084499;28;20181;-75
2023/08/20 06:12:30;;;;;;;10.75;9.85;;;;;;;33.66;35.11;93162.53;5078830;28;20223;-75
2023/08/20 06:14:56;;;;;;;11.25;10.20;;;;;;;35.30;31.21;93177.13;5075138;28;20189;-80
2023/08/20 06:17:21;;;;;;;11.55;10.55;;;;;;;34.39;31.25;93176.91;5075842;28;20233;-74
2023/08/20 06:19:46;;;;;;;12.10;10.90;;;;;;;32.11;35.08;93169.66;5071166;28;20257;-74
2023/08/20 06:22:12;;;;;;;11.40;10.13;;;;;;;29.96;41.87;93166.28;5080035;28;20253;-73
2023/08/20 06:24:37;;;;;;;11.00;10.18;;;;;;;28.31;45.24;93165.72;5071888;28;20220;-73
2023/08/20 06:27:03;;;;;;;12.23;11.00;;;;;;;27.50;46.52;93167.75;5083842;28;20227;-75
2023/08/20 06:29:28;;;;;;;11.32;10.43;;;;;;;26.48;49.78;93155.06;5083950;28;20185;-75
2023/08/20 06:31:54;;;;;;;11.70;10.68;;;;;;;26.86;48.64;93162.06;5085610;28;20229;-75
2023/08/20 06:34:19;;;;;;;10.82;10.00;;;;;;;26.76;48.94;93157.38;5083162;28;20203;-74
2023/08/20 06:36:45;;;;;;;10.90;10.20;;;;;;;26.95;47.29;93165.22;5087610;28;20236;-75
2023/08/20 06:39:10;;;;;;;11.70;10.70;;;;;;;27.09;47.71;93162.69;5085639;28;20185;-73
2023/08/20 06:41:36;;;;;;;10.90;10.05;;;;;;;27.16;47.74;93162.78;5084960;28;20185;-72
2023/08/20 06:44:02;;;;;;;16.65;15.00;;;;;;;27.16;46.96;93173.50;5086089;28;20203;-74
2023/08/20 06:46:28;;;;;;;11.52;10.48;;;;;;;27.03;47.93;93177.56;5084327;28;20208;-73
2023/08/20 06:48:53;;;;;;;11.23;10.23;;;;;;;27.07;46.98;93165.00;5087814;28;20193;-72
2023/08/20 06:51:21;;;;;;;12.77;11.07;;;;;;;26.80;47.49;93179.59;5072926;28;20211;-73
2023/08/20 06:53:46;;;;;;;11.45;10.45;;;;;;;26.61;49.69;93167.88;5078380;28;20223;-74
2023/08/20 06:56:11;;;;;;;12.23;11.00;;;;;;;26.67;47.70;93179.84;5081869;28;20177;-74
2023/08/20 06:58:41;;;;;;;12.60;11.45;;;;;;;26.71;49.92;93171.81;5075531;28;20252;-74
2023/08/20 07:01:08;;;;;;;11.85;10.73;;;;;;;27.03;47.00;93174.88;5078711;28;20189;-74
2023/08/20 07:03:43;;;;;;;12.18;11.05;;;;;;;26.70;49.70;93173.75;5076165;28;20235;-73
2023/08/20 07:06:10;;;;;;;12.60;11.63;;;;;;;26.64;49.52;93166.41;5076950;28;20208;-74
2023/08/20 07:08:38;;;;;;;12.07;11.07;;;;;;;27.18;47.70;93174.66;5075939;28;20221;-76
2023/08/20 07:11:04;;;;;;;11.63;10.77;;;;;;;27.07;48.18;93173.03;5082377;28;20193;-78
2023/08/20 07:13:29;;;;;;;11.70;10.52;;;;;;;27.33;46.22;93176.38;5073297;28;20232;-80
2023/08/20 07:15:55;;;;;;;11.55;10.65;;;;;;;27.19;47.28;93178.13;5075804;28;20189;-80
2023/08/20 07:18:20;;;;;;;13.02;11.80;;;;;;;27.18;46.77;93174.66;5084060;28;20228;-82
2023/08/20 07:20:45;;;;;;;11.00;9.95;;;;;;;27.07;47.85;93173.78;5085759;28;20204;-81
2023/08/20 07:23:11;;;;;;;12.27;11.07;;;;;;;27.39;48.24;93185.66;5082078;28;20216;-80
2023/08/20 07:25:38;;;;;;;11.77;10.73;;;;;;;27.66;45.89;93183.59;5095233;28;20237;-79
2023/08/20 07:28:04;;;;;;;11.35;10.38;;;;;;;27.91;45.73;93187.28;5091573;28;20229;-78
2023/08/20 07:30:30;;;;;;;11.85;10.95;;;;;;;27.86;45.60;93182.25;5082225;28;20193;-80
2023/08/20 07:32:55;;;;;;;11.15;10.38;;;;;;;27.73;46.22;93170.22;5078523;28;20284;-73
2023/08/20 07:35:21;;;;;;;11.45;10.35;;;;;;;27.66;45.74;93178.25;5092328;28;20200;-74
2023/08/20 07:37:47;;;;;;;11.23;10.27;;;;;;;27.56;46.35;93181.59;5080017;28;20239;-74
2023/08/20 07:40:13;;;;;;;11.43;10.63;;;;;;;27.41;46.03;93177.25;5082968;28;20185;-74
2023/08/20 07:42:40;;;;;;;12.70;11.20;;;;;;;27.42;46.02;93178.78;5081384;28;20231;-74
2023/08/20 07:45:07;;;;;;;12.00;10.93;;;;;;;27.49;45.75;93184.97;5111046;28;20207;-74
2023/08/20 07:47:32;;;;;;;10.85;9.95;;;;;;;27.41;46.00;93187.97;5092053;28;20263;-74
2023/08/20 07:49:58;;;;;;;11.27;10.38;;;;;;;27.46;45.03;93187.63;5084392;28;20174;-74
2023/08/20 07:52:23;;;;;;;11.10;10.20;;;;;;;27.67;45.47;93190.50;5073953;28;20229;-74
2023/08/20 07:54:49;;;;;;;11.90;11.00;;;;;;;27.53;46.20;93183.09;5074404;28;20189;-75
2023/08/20 07:57:14;;;;;;;13.27;10.73;;;;;;;27.63;45.66;93187.00;5075675;28;20233;-74
2023/08/20 07:59:39;;;;;;;13.77;10.95;;;;;;;27.69;45.92;93172.88;5080037;28;20182;-73
2023/08/20 08:02:05;;;;;;;11.73;10.73;;;;;;;27.61;44.76;93171.28;5077677;28;20213;-73
2023/08/20 08:04:31;;;;;;;11.57;10.63;;;;;;;27.51;44.71;93179.22;5089005;28;20192;-72
2023/08/20 08:06:56;;;;;;;12.90;11.10;;;;;;;27.15;44.99;93182.66;5086232;28;20224;-72
2023/08/20 08:09:29;;;;;;;10.80;10.02;;;;;;;27.21;45.63;93178.53;5082518;28;20235;-75
2023/08/20 08:11:55;;;;;;;10.18;9.38;;;;;;;27.33;45.36;93181.00;5079463;28;20217;-72
2023/08/20 08:14:21;;;;;;;10.70;9.90;;;;;;;27.35;45.43;93179.47;5072234;28;20181;-72
2023/08/20 08:16:46;;;;;;;10.77;9.73;;;;;;;27.51;45.44;93192.66;5071606;28;20291;-72
2023/08/20 08:19:12;;;;;;;11.05;10.13;;;;;;;27.74;43.46;93169.09;5090840;28;20295;-72
2023/08/20 08:21:37;;;;;;;10.05;9.35;;;;;;;27.44;41.29;93181.88;5077125;28;20176;-74
2023/08/20 08:24:03;;;;;;;11.10;10.13;;;;;;;27.26;41.76;93188.94;5085310;28;20192;-73
2023/08/20 08:26:29;;;;;;;11.07;10.25;;;;;;;27.03;43.46;93177.56;5086524;28;20235;-73
2023/08/20 08:28:55;;;;;;;11.10;10.18;;;;;;;27.39;42.22;93177.59;5081067;28;20195;-74
2023/08/20 08:31:20;;;;;;;9.75;9.05;;;;;;;27.36;41.02;93181.03;5074273;28;20699;-77
2023/08/20 08:33:46;;;;;;;11.07;10.07;;;;;;;27.18;43.37;93171.22;5083890;28;20385;-74
2023/08/20 08:36:11;;;;;;;11.57;10.73;;;;;;;27.16;43.54;93181.56;5076740;28;20235;-74
2023/08/20 08:38:37;;;;;;;10.50;9.65;;;;;;;27.56;39.92;93174.31;5077202;28;20229;-75
2023/08/20 08:41:07;;;;;;;11.48;10.18;;;;;;;27.49;42.02;93176.13;5090758;28;20196;-76
2023/08/20 08:43:33;;;;;;;9.80;9.20;;;;;;;27.64;40.63;93167.84;5090032;28;20221;-74
2023/08/20 08:46:01;;;;;;;10.52;9.77;;;;;;;27.73;40.90;93186.34;5088527;28;20216;-74
2023/08/20 08:48:27;;;;;;;9.73;9.10;;;;;;;27.78;40.22;93184.06;5076856;28;20217;-78
2023/08/20 08:50:53;;;;;;;10.93;9.93;;;;;;;27.87;40.83;93178.41;5083636;28;20208;-79
2023/08/20 08:53:18;;;;;;;10.15;9.35;;;;;;;27.64;39.58;93175.91;5082353;28;20224;-78
2023/08/20 08:55:44;;;;;;;10.35;9.55;;;;;;;27.76;40.21;93183.69;5101624;28;20226;-75
2023/08/20 08:58:09;;;;;;;10.32;9.57;;;;;;;27.86;40.43;93187.59;5077699;28;20224;-73
2023/08/20 09:00:35;;;;;;;10.30;9.50;;;;;;;27.80;41.03;93173.75;5083738;28;20213;-72
2023/08/20 09:03:00;;;;;;;11.63;10.45;;;;;;;27.92;42.80;93180.78;5077253;28;20229;-73
2023/08/20 09:05:26;;;;;;;11.38;10.25;;;;;;;27.94;40.55;93178.47;5087848;28;20215;-74
2023/08/20 09:07:57;;;;;;;10.73;9.93;;;;;;;28.11;40.20;93178.59;5090421;28;20224;-75
2023/08/20 09:10:26;;;;;;;9.73;8.90;;;;;;;28.26;37.07;93174.13;5076094;28;20189;-74
2023/08/20 09:12:55;;;;;;;10.40;9.55;;;;;;;28.34;36.93;93186.44;5068790;28;20221;-73
2023/08/20 09:15:21;;;;;;;10.13;9.32;;;;;;;28.39;37.67;93185.31;5059565;28;20209;-73
2023/08/20 09:17:47;;;;;;;10.23;9.40;;;;;;;28.32;38.38;93172.63;5070412;28;20237;-73
2023/08/20 09:20:12;;;;;;;11.45;10.48;;;;;;;28.39;38.82;93179.94;5065292;28;20210;-72
2023/08/20 09:22:37;;;;;;;9.88;9.07;;;;;;;28.56;37.56;93177.41;5064817;28;20213;-73
2023/08/20 09:25:03;;;;;;;11.20;10.30;;;;;;;28.55;38.56;93175.84;5083760;28;20234;-73
2023/08/20 09:27:29;;;;;;;10.80;10.02;;;;;;;28.50;38.04;93181.56;5088121;28;20254;-74
2023/08/20 09:29:57;;;;;;;12.90;10.15;;;;;;;28.41;38.17;93181.09;5080996;28;20205;-74
2023/08/20 09:32:25;;;;;;;10.57;9.55;;;;;;;28.43;38.30;93184.19;5089553;28;20225;-74
2023/08/20 09:34:52;;;;;;;9.93;9.23;;;;;;;28.41;36.31;93183.78;5089760;28;20189;-75
2023/08/20 09:37:20;;;;;;;10.13;9.38;;;;;;;28.27;37.48;93180.25;5079510;28;20216;-72
2023/08/20 09:39:46;;;;;;;10.10;9.30;;;;;;;27.88;38.13;93180.75;5091435;28;20185;-72
2023/08/20 09:42:12;;;;;;;10.35;9.52;;;;;;;27.91;39.00;93179.22;5090576;28;20223;-70
2023/08/20 09:44:40;;;;;;;10.18;9.35;;;;;;;28.05;37.93;93173.97;5088617;28;20253;-71
2023/08/20 09:47:07;;;;;;;11.10;10.20;;;;;;;28.27;37.97;93177.59;5088333;28;20237;-71
2023/08/20 09:49:44;;;;;;;10.05;9.13;;;;;;;28.55;37.32;93175.06;5086033;28;20197;-72
2023/08/20 09:52:16;;;;;;;11.02;9.77;;;;;;;28.66;38.32;93176.66;5082637;28;20251;-72
2023/08/20 09:54:47;;;;;;;10.50;9.55;;;;;;;28.85;35.52;93167.53;5082627;28;20190;-71
2023/08/20 09:57:26;;;;;;;10.05;9.32;;;;;;;28.92;35.71;93168.31;5080905;28;20240;-71
2023/08/20 09:59:52;;;;;;;10.25;9.45;;;;;;;28.79;35.57;93166.34;5075314;28;20181;-72
2023/08/20 10:02:19;;;;;;;9.73;9.02;;;;;;;28.80;35.33;93165.97;5075866;28;20228;-72
2023/08/20 10:04:44;;;;;;;9.15;8.55;;;;;;;29.02;32.68;93177.56;5082546;28;20256;-72
2023/08/20 10:07:11;;;;;;;8.93;8.32;;;;;;;28.87;34.09;93182.16;5079056;28;20224;-71
2023/08/20 10:09:39;;;;;;;9.98;9.23;;;;;;;28.94;33.34;93176.78;5085585;28;20191;-71
2023/08/20 10:12:05;;;;;;;8.85;8.35;;;;;;;28.63;32.84;93161.28;5088573;28;20232;-72
2023/08/20 10:14:30;;;;;;;8.77;8.15;;;;;;;28.70;33.22;93165.94;5088854;28;20204;-72
2023/08/20 10:16:56;;;;;;;8.60;8.10;;;;;;;28.92;34.07;93176.38;5088711;28;20235;-72
2023/08/20 10:19:23;;;;;;;9.00;8.32;;;;;;;29.11;33.00;93176.09;5080435;28;20196;-72
2023/08/20 10:21:52;;;;;;;9.88;9.15;;;;;;;28.95;33.18;93172.94;5077552;28;20236;-72
2023/08/20 10:24:19;;;;;;;9.15;8.55;;;;;;;29.00;33.03;93169.88;5074112;28;20216;-72
2023/08/20 10:26:48;;;;;;;9.35;8.63;;;;;;;29.04;32.50;93176.06;5084059;28;20270;-72
2023/08/20 10:29:37;;;;;;;8.95;8.27;;;;;;;29.08;33.85;93176.88;5080695;28;20182;-72
2023/08/20 10:32:08;;;;;;;9.88;9.07;;;;;;;28.91;34.39;93164.09;5082564;28;20238;-72
2023/08/20 10:34:37;;;;;;;9.38;8.60;;;;;;;28.93;34.30;93172.56;5087896;28;21284;-72
2023/08/20 10:37:26;;;;;;;9.32;8.52;;;;;;;28.99;33.80;93167.59;5081720;28;20237;-72
2023/08/20 10:39:56;;;;;;;8.35;7.88;;;;;;;28.95;34.61;93156.06;5073783;28;20211;-72
2023/08/20 10:42:23;;;;;;;9.85;9.15;;;;;;;29.21;33.69;93161.16;5083170;28;20225;-72
2023/08/20 10:45:10;;;;;;;9.57;8.65;;;;;;;29.17;34.96;93158.44;5073913;28;20194;-73
2023/08/20 10:47:37;;;;;;;9.30;8.70;;;;;;;29.36;34.61;93154.63;5082911;28;20231;-72
2023/08/20 10:50:03;;;;;;;8.98;8.38;;;;;;;29.27;34.93;93152.34;5079977;28;20187;-72
2023/08/20 10:52:28;;;;;;;9.95;9.15;;;;;;;29.01;35.10;93160.69;5086542;28;20232;-72
2023/08/20 10:54:56;;;;;;;9.32;8.73;;;;;;;29.11;35.57;93143.84;5085278;28;20193;-73
2023/08/20 10:57:21;;;;;;;9.45;8.85;;;;;;;29.30;34.42;93161.53;5083508;28;20245;-72
2023/08/20 11:00:00;;;;;;;9.65;8.95;;;;;;;29.18;35.77;93149.25;5078507;28;20261;-72
2023/08/20 11:02:26;;;;;;;10.35;9.50;;;;;;;28.90;35.69;93154.50;5070567;28;20279;-72
2023/08/20 11:04:53;;;;;;;9.93;9.30;;;;;;;29.14;36.11;93148.44;5079511;28;20187;-72
2023/08/20 11:07:19;;;;;;;9.77;9.07;;;;;;;29.31;36.24;93147.72;5079967;28;20221;-73
2023/08/20 11:09:46;;;;;;;10.15;9.43;;;;;;;29.10;36.07;93147.69;5083108;28;20229;-71
2023/08/20 11:12:14;;;;;;;10.30;9.60;;;;;;;29.01;36.19;93144.56;5086245;28;20220;-72
2023/08/20 11:14:40;;;;;;;9.38;8.80;;;;;;;29.23;36.23;93138.09;5083526;28;20219;-71
2023/08/20 11:17:07;;;;;;;9.60;8.90;;;;;;;29.37;34.85;93148.13;5076822;28;20244;-72